Time;durP1;ratioP1;P1;durP2;ratioP2;P2;SDS_P1;SDS_P2;PMS_P1;PMS_P2;Temp;Humidity;BMP_temperature;BMP_pressure;BME280_temperature;BME280_humidity;BME280_pressure;Samples;Min_cycle;Max_cycle;Signal;HPM_P1;HPM_P2
2024/02/19 00:01:18;;;;;;;0.47;0.47;;;;;;;11.14;75.78;102785.16;5080122;28;20062;-78
2024/02/19 00:03:45;;;;;;;0.10;0.10;;;;;;;11.14;75.74;102799.31;5083109;28;20106;-78
2024/02/19 00:06:11;;;;;;;0.10;0.10;;;;;;;11.14;76.12;102809.03;5091241;28;20035;-78
2024/02/19 00:08:37;;;;;;;0.10;0.10;;;;;;;11.16;75.64;102809.94;5096816;28;20526;-77
2024/02/19 00:11:04;;;;;;;0.10;0.10;;;;;;;11.23;76.09;102795.84;5095506;28;20073;-78
2024/02/19 00:13:30;;;;;;;1.38;1.38;;;;;;;11.20;75.33;102790.50;5084621;28;20406;-78
2024/02/19 00:15:56;;;;;;;0.52;0.50;;;;;;;11.04;75.69;102799.19;5094117;28;20107;-78
2024/02/19 00:18:22;;;;;;;0.10;0.10;;;;;;;11.15;75.47;102794.88;5095871;28;20498;-79
2024/02/19 00:20:49;;;;;;;0.10;0.10;;;;;;;11.19;75.65;102798.47;5099793;28;20084;-79
2024/02/19 00:23:15;;;;;;;0.10;0.10;;;;;;;11.12;75.89;102797.53;5103927;28;20031;-79
2024/02/19 00:25:41;;;;;;;0.10;0.10;;;;;;;11.10;75.64;102805.47;5100786;28;20028;-79
2024/02/19 00:28:09;;;;;;;0.10;0.10;;;;;;;11.20;74.86;102808.19;5105347;28;20087;-78
2024/02/19 00:30:35;;;;;;;0.25;0.25;;;;;;;11.17;75.08;102811.72;5103291;28;20434;-79
2024/02/19 00:33:02;;;;;;;0.10;0.10;;;;;;;11.15;75.47;102818.75;5101177;28;20103;-79
2024/02/19 00:35:29;;;;;;;0.32;0.32;;;;;;;11.15;75.40;102818.75;5101180;28;20020;-79
2024/02/19 00:37:55;;;;;;;0.35;0.35;;;;;;;11.04;75.20;102817.78;5100768;28;20498;-79
2024/02/19 00:40:21;;;;;;;0.10;0.10;;;;;;;11.16;74.88;102812.59;5099990;28;20028;-79
2024/02/19 00:42:47;;;;;;;0.13;0.13;;;;;;;11.21;74.81;102821.47;5101768;28;20024;-77
2024/02/19 00:45:14;;;;;;;0.30;0.30;;;;;;;11.19;75.18;102814.38;5099500;28;20028;-78
2024/02/19 00:47:40;;;;;;;0.20;0.20;;;;;;;11.20;74.60;102826.78;5099941;28;20021;-78
2024/02/19 00:50:07;;;;;;;0.10;0.10;;;;;;;11.19;74.70;102814.38;5099082;28;20490;-78
2024/02/19 00:52:33;;;;;;;0.28;0.28;;;;;;;11.24;74.71;102824.16;5100596;28;20391;-79
2024/02/19 00:54:59;;;;;;;0.20;0.20;;;;;;;11.12;75.10;102813.44;5099139;28;20024;-79
2024/02/19 00:57:26;;;;;;;0.10;0.10;;;;;;;11.03;74.92;102826.59;5100633;28;20028;-78
2024/02/19 00:59:52;;;;;;;0.10;0.10;;;;;;;11.11;74.97;102822.28;5099892;28;20028;-79
2024/02/19 01:02:18;;;;;;;0.10;0.10;;;;;;;11.06;75.20;102826.66;5100672;28;20078;-79
2024/02/19 01:04:44;;;;;;;0.10;0.10;;;;;;;11.10;74.69;102821.41;5100675;28;20500;-78
2024/02/19 01:07:11;;;;;;;0.10;0.10;;;;;;;11.11;75.10;102828.44;5102098;28;20027;-79
2024/02/19 01:09:37;;;;;;;0.20;0.20;;;;;;;11.13;74.71;102817.88;5098183;28;20398;-78
2024/02/19 01:12:04;;;;;;;0.10;0.10;;;;;;;11.13;74.50;102834.66;5091342;28;20024;-79
2024/02/19 01:14:30;;;;;;;0.20;0.20;;;;;;;11.08;75.40;102832.84;5090487;28;20047;-78
2024/02/19 01:16:56;;;;;;;0.10;0.10;;;;;;;11.10;74.73;102820.50;5094398;28;20028;-77
2024/02/19 01:19:22;;;;;;;0.40;0.40;;;;;;;11.12;75.33;102816.97;5089879;28;20470;-78
2024/02/19 01:21:50;;;;;;;0.20;0.20;;;;;;;11.07;74.71;102826.66;5093251;28;20024;-78
2024/02/19 01:24:16;;;;;;;0.15;0.15;;;;;;;11.06;74.70;102834.59;5074229;28;20028;-78
2024/02/19 01:26:43;;;;;;;0.20;0.20;;;;;;;11.07;74.98;102833.75;5085378;28;20138;-78
2024/02/19 01:29:09;;;;;;;0.10;0.10;;;;;;;11.00;75.00;102828.38;5085082;28;20032;-78
2024/02/19 01:31:35;;;;;;;0.10;0.10;;;;;;;11.04;75.23;102837.25;5090924;28;20059;-78
2024/02/19 01:34:04;;;;;;;0.10;0.10;;;;;;;11.02;75.28;102833.69;5091674;28;20035;-77
2024/02/19 01:36:30;;;;;;;0.10;0.10;;;;;;;11.04;75.21;102826.66;5093433;28;20111;-78
2024/02/19 01:38:56;;;;;;;0.40;0.40;;;;;;;11.03;74.86;102826.59;5093052;28;20081;-78
2024/02/19 01:41:22;;;;;;;0.10;0.10;;;;;;;10.95;75.30;102819.47;5085888;28;20020;-78
2024/02/19 01:43:49;;;;;;;0.22;0.22;;;;;;;11.00;75.13;102815.09;5087752;28;20027;-78
2024/02/19 01:46:15;;;;;;;0.20;0.20;;;;;;;11.04;74.69;102820.44;5085870;28;20025;-78
2024/02/19 01:48:42;;;;;;;0.10;0.10;;;;;;;11.06;75.17;102808.06;5089283;28;20653;-78
2024/02/19 01:51:08;;;;;;;17.63;3.28;;;;;;;11.06;74.87;102813.38;5085071;28;20025;-78
2024/02/19 01:53:35;;;;;;;0.13;0.13;;;;;;;11.08;75.03;102812.53;5088706;28;20024;-78
2024/02/19 01:56:01;;;;;;;0.15;0.15;;;;;;;11.14;74.59;102816.97;5088005;28;20035;-78
2024/02/19 01:58:29;;;;;;;0.32;0.32;;;;;;;11.07;74.29;102821.34;5088235;28;20088;-78
2024/02/19 02:00:58;;;;;;;2.47;1.27;;;;;;;11.09;74.49;102813.41;5087080;28;20035;-78
2024/02/19 02:03:26;;;;;;;0.20;0.20;;;;;;;11.10;74.66;102816.09;5087598;28;20023;-77
2024/02/19 02:05:53;;;;;;;0.10;0.10;;;;;;;11.04;74.49;102825.72;5088556;28;20035;-77
2024/02/19 02:08:19;;;;;;;0.10;0.10;;;;;;;10.98;74.36;102813.31;5088936;28;20044;-78
2024/02/19 02:10:45;;;;;;;1.38;1.27;;;;;;;10.96;74.60;102804.44;5089803;28;20039;-78
2024/02/19 02:13:12;;;;;;;0.25;0.25;;;;;;;11.09;74.20;102801.03;5088042;28;20028;-77
2024/02/19 02:15:38;;;;;;;0.10;0.10;;;;;;;11.18;74.03;102808.19;5086880;28;20028;-78
2024/02/19 02:18:04;;;;;;;2.60;1.85;;;;;;;11.10;73.79;102808.13;5086060;28;20062;-78
2024/02/19 02:20:31;;;;;;;1.35;0.80;;;;;;;11.12;74.63;102802.84;5088064;28;20052;-78
2024/02/19 02:22:58;;;;;;;0.20;0.20;;;;;;;11.17;74.85;102795.78;5087562;28;20043;-77
2024/02/19 02:25:24;;;;;;;0.10;0.10;;;;;;;11.10;74.90;102793.97;5086727;28;20017;-77
2024/02/19 02:27:51;;;;;;;0.10;0.10;;;;;;;11.10;74.39;102794.88;5088526;28;20031;-76
2024/02/19 02:30:17;;;;;;;0.15;0.15;;;;;;;11.12;74.35;102789.56;5087824;28;20020;-78
2024/02/19 02:32:43;;;;;;;0.10;0.10;;;;;;;11.11;74.01;102790.44;5089834;28;20025;-78
2024/02/19 02:35:10;;;;;;;1.40;1.30;;;;;;;11.06;73.93;102784.19;5086088;28;20028;-78
2024/02/19 02:37:36;;;;;;;0.10;0.10;;;;;;;11.08;74.06;102788.66;5082689;28;20052;-77
2024/02/19 02:40:02;;;;;;;0.55;0.55;;;;;;;11.13;74.22;102783.41;5091181;28;20078;-78
2024/02/19 02:42:28;;;;;;;0.10;0.10;;;;;;;11.13;74.34;102788.69;5090885;28;20402;-78
2024/02/19 02:44:55;;;;;;;0.10;0.10;;;;;;;11.15;74.35;102792.22;5088688;28;20026;-78
2024/02/19 02:47:21;;;;;;;0.20;0.20;;;;;;;11.12;73.95;102802.84;5092975;28;20107;-78
2024/02/19 02:49:47;;;;;;;0.10;0.10;;;;;;;11.04;73.74;102796.56;5092188;28;20111;-78
2024/02/19 02:52:13;;;;;;;1.20;1.20;;;;;;;11.08;74.06;102801.91;5091486;28;20098;-78
2024/02/19 02:54:39;;;;;;;0.20;0.20;;;;;;;11.11;74.26;102793.97;5093715;28;20032;-78
2024/02/19 02:57:06;;;;;;;1.60;1.50;;;;;;;11.12;74.01;102787.78;5090552;28;20383;-77
2024/02/19 02:59:32;;;;;;;0.10;0.10;;;;;;;11.10;73.31;102793.97;5088815;28;20032;-78
2024/02/19 03:01:58;;;;;;;1.23;1.17;;;;;;;11.15;73.60;102792.22;5090180;28;20025;-77
2024/02/19 03:04:24;;;;;;;0.10;0.10;;;;;;;11.19;73.76;102778.13;5088079;28;20025;-78
2024/02/19 03:06:50;;;;;;;0.20;0.20;;;;;;;11.19;73.41;102783.44;5087937;28;20024;-78
2024/02/19 03:09:17;;;;;;;0.10;0.10;;;;;;;11.25;73.50;102788.81;5089762;28;20468;-78
2024/02/19 03:11:43;;;;;;;0.10;0.10;;;;;;;11.26;73.54;102787.91;5090245;28;20035;-78
2024/02/19 03:14:13;;;;;;;0.10;0.10;;;;;;;11.27;73.80;102788.81;5087558;28;20032;-78
2024/02/19 03:16:39;;;;;;;0.10;0.10;;;;;;;11.29;73.94;102789.69;5087984;28;20049;-78
2024/02/19 03:19:09;;;;;;;0.20;0.20;;;;;;;11.26;73.37;102785.25;5086896;28;20030;-78
2024/02/19 03:21:37;;;;;;;0.10;0.10;;;;;;;11.26;73.04;102795.00;5086416;28;20024;-78
2024/02/19 03:24:03;;;;;;;0.10;0.10;;;;;;;11.32;73.27;102793.25;5084196;28;20024;-78
2024/02/19 03:26:30;;;;;;;2.20;1.73;;;;;;;11.37;73.05;102792.44;5087207;28;20555;-77
2024/02/19 03:28:57;;;;;;;0.10;0.10;;;;;;;11.34;72.43;102785.34;5087847;28;20036;-78
2024/02/19 03:31:23;;;;;;;1.65;1.55;;;;;;;11.38;73.20;102786.25;5085286;28;20028;-77
2024/02/19 03:33:49;;;;;;;5.72;3.40;;;;;;;11.32;72.34;102792.38;5088966;28;20031;-77
2024/02/19 03:36:16;;;;;;;0.10;0.10;;;;;;;11.42;72.76;102780.09;5086955;28;20043;-77
2024/02/19 03:38:42;;;;;;;0.20;0.20;;;;;;;11.38;73.35;102792.44;5088754;28;20024;-77
2024/02/19 03:41:09;;;;;;;0.35;0.35;;;;;;;11.44;72.53;102773.00;5089119;28;20402;-78
2024/02/19 03:43:35;;;;;;;0.10;0.10;;;;;;;11.37;72.12;102773.84;5087104;28;20032;-78
2024/02/19 03:46:04;;;;;;;0.10;0.10;;;;;;;11.39;72.64;102766.78;5092611;28;20078;-78
2024/02/19 03:48:30;;;;;;;0.10;0.10;;;;;;;11.39;72.14;102765.03;5097616;28;20083;-78
2024/02/19 03:50:56;;;;;;;0.20;0.20;;;;;;;11.41;72.31;102773.00;5097668;28;20028;-77
2024/02/19 03:53:23;;;;;;;0.17;0.17;;;;;;;11.48;72.79;102765.06;5096204;28;20026;-78
2024/02/19 03:55:49;;;;;;;8.55;3.60;;;;;;;11.39;71.44;102769.44;5095508;28;20032;-77
2024/02/19 03:58:16;;;;;;;0.10;0.10;;;;;;;11.40;71.59;102784.47;5099823;28;20090;-77
2024/02/19 04:00:42;;;;;;;0.10;0.10;;;;;;;11.45;72.07;102777.44;5097363;28;20040;-78
2024/02/19 04:03:08;;;;;;;0.10;0.10;;;;;;;11.52;72.82;102776.59;5095734;28;20021;-78
2024/02/19 04:05:34;;;;;;;0.47;0.47;;;;;;;11.53;72.28;102773.09;5095878;28;20038;-78
2024/02/19 04:08:00;;;;;;;0.17;0.17;;;;;;;11.53;71.61;102773.09;5100970;28;20032;-78
2024/02/19 04:10:27;;;;;;;0.15;0.15;;;;;;;11.56;71.53;102773.09;5092464;28;20032;-78
2024/02/19 04:12:53;;;;;;;0.10;0.10;;;;;;;11.52;71.65;102775.72;5100913;28;20024;-78
2024/02/19 04:15:19;;;;;;;0.10;0.10;;;;;;;11.53;71.08;102780.16;5096159;28;20035;-78
2024/02/19 04:17:47;;;;;;;0.15;0.15;;;;;;;11.56;71.83;102785.47;5095381;28;20028;-77
2024/02/19 04:20:14;;;;;;;0.10;0.10;;;;;;;11.57;71.36;102785.50;5094398;28;20402;-77
2024/02/19 04:22:41;;;;;;;0.20;0.20;;;;;;;11.46;71.31;102787.19;5075338;28;20024;-77
2024/02/19 04:25:08;;;;;;;0.20;0.20;;;;;;;11.63;71.74;102784.66;5092969;28;20024;-78
2024/02/19 04:27:34;;;;;;;0.10;0.10;;;;;;;11.63;71.89;102777.56;5098427;28;20020;-77
2024/02/19 04:30:00;;;;;;;0.10;0.10;;;;;;;11.65;70.87;102783.78;5097461;28;20032;-78
2024/02/19 04:32:26;;;;;;;0.10;0.10;;;;;;;11.66;71.23;102776.69;5096323;28;20181;-78
2024/02/19 04:34:55;;;;;;;0.10;0.10;;;;;;;11.68;70.95;102787.34;5097398;28;20031;-78
2024/02/19 04:37:21;;;;;;;0.10;0.10;;;;;;;11.68;71.09;102796.19;5097544;28;20035;-78
2024/02/19 04:39:48;;;;;;;0.20;0.20;;;;;;;11.75;70.58;102794.47;5093847;28;20056;-78
2024/02/19 04:42:15;;;;;;;0.10;0.10;;;;;;;11.72;70.57;102790.00;5096713;28;20150;-78
2024/02/19 04:44:41;;;;;;;0.10;0.10;;;;;;;11.59;70.78;102789.06;5097650;28;20028;-77
2024/02/19 04:47:08;;;;;;;0.10;0.10;;;;;;;11.71;71.41;102792.66;5097843;28;20053;-78
2024/02/19 04:49:34;;;;;;;0.10;0.10;;;;;;;11.69;71.13;102794.41;5101723;28;20046;-78
2024/02/19 04:52:00;;;;;;;0.10;0.10;;;;;;;11.74;71.31;102785.63;5101465;28;20395;-78
2024/02/19 04:54:28;;;;;;;0.13;0.13;;;;;;;11.74;71.05;102792.66;5098576;28;20036;-78
2024/02/19 04:56:55;;;;;;;0.10;0.10;;;;;;;11.78;71.65;102786.53;5100106;28;20016;-78
2024/02/19 04:59:21;;;;;;;0.17;0.17;;;;;;;11.77;71.65;102782.97;5095219;28;20457;-78
2024/02/19 05:01:47;;;;;;;0.15;0.15;;;;;;;11.78;71.60;102775.91;5091604;28;20036;-78
2024/02/19 05:04:13;;;;;;;0.10;0.10;;;;;;;11.85;71.92;102768.84;5094129;28;20045;-77
2024/02/19 05:06:39;;;;;;;6.55;2.28;;;;;;;11.90;71.72;102768.00;5092335;28;20028;-78
2024/02/19 05:09:07;;;;;;;0.20;0.20;;;;;;;11.89;71.62;102763.56;5095235;28;20107;-78
2024/02/19 05:11:33;;;;;;;0.20;0.20;;;;;;;11.92;72.12;102760.91;5093771;28;20024;-78
2024/02/19 05:14:00;;;;;;;0.10;0.10;;;;;;;11.97;71.43;102758.31;5091138;28;20035;-78
2024/02/19 05:16:26;;;;;;;0.10;0.10;;;;;;;11.96;71.14;102760.09;5095426;28;20016;-78
2024/02/19 05:18:52;;;;;;;0.20;0.20;;;;;;;12.00;71.67;102761.00;5095558;28;20435;-78
2024/02/19 05:21:19;;;;;;;0.43;0.43;;;;;;;11.96;72.13;102757.44;5096302;28;20035;-78
2024/02/19 05:23:45;;;;;;;0.10;0.10;;;;;;;12.01;71.70;102768.06;5094005;28;20029;-78
2024/02/19 05:26:11;;;;;;;0.43;0.43;;;;;;;11.98;71.72;102768.06;5091957;28;20039;-78
2024/02/19 05:28:38;;;;;;;0.10;0.10;;;;;;;12.02;71.74;102779.59;5096170;28;20038;-78
2024/02/19 05:31:05;;;;;;;0.10;0.10;;;;;;;11.96;71.38;102776.03;5095612;28;20031;-76
2024/02/19 05:33:31;;;;;;;0.10;0.10;;;;;;;12.02;71.59;102776.94;5099213;28;20036;-78
2024/02/19 05:35:57;;;;;;;0.10;0.10;;;;;;;11.98;71.41;102760.97;5097297;28;20020;-78
2024/02/19 05:38:24;;;;;;;0.45;0.45;;;;;;;12.02;71.94;102767.19;5098828;28;20035;-78
2024/02/19 05:40:50;;;;;;;0.10;0.10;;;;;;;11.98;71.63;102760.97;5093082;28;20055;-77
2024/02/19 05:43:16;;;;;;;0.10;0.10;;;;;;;12.00;71.70;102766.31;5090519;28;20024;-77
2024/02/19 05:45:42;;;;;;;0.20;0.20;;;;;;;12.00;72.07;102762.75;5089355;28;20028;-77
2024/02/19 05:48:09;;;;;;;0.15;0.15;;;;;;;11.99;71.84;102772.50;5092922;28;20023;-78
2024/02/19 05:50:35;;;;;;;0.13;0.13;;;;;;;11.96;72.23;102765.41;5090591;28;20024;-78
2024/02/19 05:53:02;;;;;;;0.10;0.10;;;;;;;11.97;72.52;102768.94;5091429;28;20035;-78
2024/02/19 05:55:28;;;;;;;0.10;0.10;;;;;;;12.00;72.51;102757.44;5089195;28;20514;-77
2024/02/19 05:57:54;;;;;;;0.10;0.10;;;;;;;11.96;72.14;102752.13;5090656;28;20467;-78
2024/02/19 06:00:20;;;;;;;0.10;0.10;;;;;;;12.01;72.28;102757.44;5090024;28;20032;-77
2024/02/19 06:02:47;;;;;;;0.10;0.10;;;;;;;11.94;71.90;102756.50;5092977;28;20031;-78
2024/02/19 06:05:13;;;;;;;0.40;0.40;;;;;;;11.96;71.93;102754.78;5092609;28;20019;-78
2024/02/19 06:07:39;;;;;;;0.10;0.10;;;;;;;11.94;72.47;102763.59;5093416;28;20046;-78
2024/02/19 06:10:07;;;;;;;0.10;0.10;;;;;;;11.90;72.61;102760.03;5089551;28;20020;-78
2024/02/19 06:12:33;;;;;;;0.13;0.13;;;;;;;11.90;72.49;102749.41;5093006;28;20676;-77
2024/02/19 06:14:59;;;;;;;0.05;0.05;;;;;;;11.91;72.13;102747.63;5090843;28;20040;-77
2024/02/19 06:17:26;;;;;;;0.10;0.10;;;;;;;11.85;72.75;102755.56;5086975;28;20491;-77
2024/02/19 06:19:52;;;;;;;0.13;0.13;;;;;;;11.81;72.70;102754.66;5087734;28;20111;-78
2024/02/19 06:22:18;;;;;;;0.10;0.10;;;;;;;11.82;72.98;102764.41;5093791;28;20051;-78
2024/02/19 06:24:46;;;;;;;0.63;0.63;;;;;;;11.84;72.86;102767.97;5095767;28;20505;-78
2024/02/19 06:27:12;;;;;;;0.10;0.10;;;;;;;11.82;72.25;102759.09;5091282;28;20039;-78
2024/02/19 06:29:39;;;;;;;0.10;0.10;;;;;;;11.81;72.93;102755.56;5095969;28;20024;-78
2024/02/19 06:32:06;;;;;;;0.10;0.10;;;;;;;11.76;72.34;102769.69;5091397;28;20396;-78
2024/02/19 06:34:34;;;;;;;0.30;0.30;;;;;;;11.82;72.34;102765.31;5095303;28;20030;-78
2024/02/19 06:37:00;;;;;;;0.03;0.03;;;;;;;11.73;72.83;102767.03;5095208;28;20039;-78
2024/02/19 06:39:27;;;;;;;0.10;0.10;;;;;;;11.82;72.26;102767.06;5092707;28;20034;-78
2024/02/19 06:41:53;;;;;;;0.10;0.10;;;;;;;11.85;72.64;102772.41;5093568;28;20040;-78
2024/02/19 06:44:19;;;;;;;0.38;0.38;;;;;;;11.90;72.38;102761.78;5092417;28;20032;-78
2024/02/19 06:46:45;;;;;;;0.38;0.38;;;;;;;11.91;72.60;102761.81;5090338;28;20043;-77
2024/02/19 06:49:11;;;;;;;0.73;0.73;;;;;;;11.87;72.50;102767.97;5091576;28;20024;-77
2024/02/19 06:51:37;;;;;;;0.10;0.10;;;;;;;11.90;72.55;102754.72;5090414;28;20036;-77
2024/02/19 06:54:03;;;;;;;0.10;0.10;;;;;;;11.92;72.51;102760.03;5089177;28;20206;-77
2024/02/19 06:56:30;;;;;;;0.15;0.15;;;;;;;11.89;71.93;102765.34;5090668;28;20028;-77
2024/02/19 06:58:56;;;;;;;0.10;0.10;;;;;;;11.94;72.62;102751.19;5090196;28;20067;-77
2024/02/19 07:01:22;;;;;;;0.35;0.35;;;;;;;11.97;72.17;102759.22;5087467;28;20036;-77
2024/02/19 07:03:48;;;;;;;0.10;0.10;;;;;;;11.95;72.12;102768.00;5091801;28;20545;-77
2024/02/19 07:06:14;;;;;;;0.52;0.52;;;;;;;11.97;72.63;102763.63;5085067;28;20030;-75
2024/02/19 07:08:41;;;;;;;0.13;0.13;;;;;;;11.96;72.25;102762.75;5086123;28;20031;-77
2024/02/19 07:11:07;;;;;;;1.08;1.08;;;;;;;11.94;72.23;102761.81;5071473;28;20035;-77
2024/02/19 07:13:33;;;;;;;0.13;0.13;;;;;;;11.96;72.68;102757.44;5082415;28;20034;-77
2024/02/19 07:15:59;;;;;;;0.10;0.10;;;;;;;11.96;72.91;102760.09;5075419;28;20158;-77
2024/02/19 07:18:25;;;;;;;0.15;0.15;;;;;;;11.95;72.91;102755.63;5083854;28;20047;-77
2024/02/19 07:20:52;;;;;;;0.10;0.10;;;;;;;11.94;72.58;102758.28;5081265;28;20036;-77
2024/02/19 07:23:18;;;;;;;0.10;0.10;;;;;;;12.00;72.66;102746.81;5083550;28;20035;-77
2024/02/19 07:25:44;;;;;;;1.40;1.30;;;;;;;11.93;72.68;102741.44;5075197;28;20437;-77
2024/02/19 07:28:10;;;;;;;0.20;0.20;;;;;;;11.96;72.80;102741.50;5082534;28;20475;-77
2024/02/19 07:30:38;;;;;;;0.10;0.10;;;;;;;11.95;73.08;102745.00;5073939;28;20376;-77
2024/02/19 07:33:04;;;;;;;0.10;0.10;;;;;;;11.96;73.32;102746.81;5066301;28;20067;-77
2024/02/19 07:35:31;;;;;;;0.10;0.10;;;;;;;11.94;73.47;102747.66;5076201;28;20024;-77
2024/02/19 07:37:57;;;;;;;0.25;0.25;;;;;;;11.90;73.69;102749.41;5074808;28;20043;-77
2024/02/19 07:40:24;;;;;;;0.10;0.10;;;;;;;11.94;73.06;102747.66;5077756;28;20050;-77
2024/02/19 07:42:50;;;;;;;0.10;0.10;;;;;;;11.84;73.30;102746.72;5077994;28;20035;-77
2024/02/19 07:45:16;;;;;;;0.10;0.10;;;;;;;11.87;73.47;102746.72;5077792;28;20055;-77
2024/02/19 07:47:42;;;;;;;0.10;0.10;;;;;;;11.79;73.26;102745.81;5083342;28;20043;-77
2024/02/19 07:50:09;;;;;;;0.10;0.10;;;;;;;11.80;73.73;102752.88;5085425;28;20032;-79
2024/02/19 07:52:35;;;;;;;0.10;0.10;;;;;;;11.85;73.33;102758.22;5074482;28;20032;-77
2024/02/19 07:55:02;;;;;;;0.75;0.75;;;;;;;11.81;73.97;102768.84;5081843;28;20039;-77
2024/02/19 07:57:28;;;;;;;0.95;0.45;;;;;;;11.82;73.47;102769.72;5087029;28;20051;-78
2024/02/19 07:59:55;;;;;;;0.13;0.13;;;;;;;11.79;73.03;102770.59;5092960;28;20032;-78
2024/02/19 08:02:21;;;;;;;0.20;0.20;;;;;;;11.84;73.54;102767.97;5092101;28;20031;-77
2024/02/19 08:04:47;;;;;;;0.20;0.20;;;;;;;11.82;73.46;102772.38;5088996;28;20044;-77
2024/02/19 08:07:13;;;;;;;0.52;0.52;;;;;;;11.78;73.55;102778.56;5089485;28;20078;-77
2024/02/19 08:09:39;;;;;;;1.10;1.10;;;;;;;11.84;73.83;102783.00;5090128;28;20024;-77
2024/02/19 08:12:05;;;;;;;1.58;1.48;;;;;;;11.91;73.59;102784.81;5089213;28;20121;-77
2024/02/19 08:14:32;;;;;;;0.10;0.10;;;;;;;11.92;73.94;102790.13;5090009;28;20024;-77
2024/02/19 08:16:58;;;;;;;0.10;0.10;;;;;;;11.97;74.00;102792.84;5092668;28;20103;-77
2024/02/19 08:19:24;;;;;;;0.95;0.95;;;;;;;12.03;73.58;102789.34;5086001;28;20028;-77
2024/02/19 08:21:50;;;;;;;0.20;0.20;;;;;;;12.02;73.24;102784.91;5083837;28;20025;-76
2024/02/19 08:24:17;;;;;;;0.30;0.30;;;;;;;12.15;73.32;102792.06;5080186;28;20243;-77
2024/02/19 08:26:43;;;;;;;0.17;0.17;;;;;;;12.18;73.01;102802.69;5088541;28;20024;-77
2024/02/19 08:29:10;;;;;;;1.00;1.00;;;;;;;12.28;73.06;102793.00;5082612;28;20039;-77
2024/02/19 08:31:36;;;;;;;0.10;0.10;;;;;;;12.36;72.72;102790.38;5082505;28;20040;-78
2024/02/19 08:34:02;;;;;;;0.10;0.10;;;;;;;12.44;72.92;102801.94;5080898;28;20044;-77
2024/02/19 08:36:28;;;;;;;0.10;0.10;;;;;;;12.42;72.65;102798.38;5092069;28;20024;-80
2024/02/19 08:38:55;;;;;;;0.20;0.20;;;;;;;12.44;71.99;102801.94;5099802;28;20038;-78
2024/02/19 08:41:21;;;;;;;0.10;0.10;;;;;;;12.45;71.46;102809.91;5096303;28;20020;-79
2024/02/19 08:43:48;;;;;;;0.10;0.10;;;;;;;12.46;71.21;102808.13;5091992;28;20035;-78
2024/02/19 08:46:15;;;;;;;0.10;0.10;;;;;;;12.50;71.08;102812.59;5088613;28;20020;-78
2024/02/19 08:48:41;;;;;;;0.10;0.10;;;;;;;12.39;71.29;102806.34;5092568;28;20119;-79
2024/02/19 08:51:08;;;;;;;0.45;0.45;;;;;;;12.39;70.43;102803.69;5091855;28;20055;-79
2024/02/19 08:53:35;;;;;;;0.17;0.17;;;;;;;12.36;69.92;102808.97;5096494;28;20031;-79
2024/02/19 08:56:01;;;;;;;0.77;0.77;;;;;;;12.43;70.16;102797.50;5094897;28;20020;-81
2024/02/19 08:58:30;;;;;;;0.10;0.10;;;;;;;12.53;70.90;102795.75;5098771;28;20111;-80
2024/02/19 09:00:57;;;;;;;0.63;0.63;;;;;;;12.54;70.45;102798.41;5089754;28;20032;-79
2024/02/19 09:03:24;;;;;;;0.50;0.50;;;;;;;12.58;70.26;102788.69;5083893;28;20028;-81
2024/02/19 09:05:50;;;;;;;0.35;0.35;;;;;;;12.64;70.54;102787.81;5101366;28;20024;-80
2024/02/19 09:08:17;;;;;;;0.25;0.25;;;;;;;12.63;70.61;102786.91;5104413;28;20024;-81
2024/02/19 09:10:44;;;;;;;0.57;0.57;;;;;;;12.59;69.39;102795.78;5102084;28;20053;-82
2024/02/19 09:13:10;;;;;;;0.63;0.63;;;;;;;12.70;69.94;102787.84;5104929;28;20024;-81
2024/02/19 09:15:36;;;;;;;0.10;0.10;;;;;;;12.76;70.26;102783.41;5103424;28;20039;-80
2024/02/19 09:18:03;;;;;;;0.10;0.10;;;;;;;12.80;69.84;102789.63;5098817;28;20066;-79
2024/02/19 09:20:29;;;;;;;0.10;0.10;;;;;;;12.78;69.40;102776.34;5095493;28;20028;-80
2024/02/19 09:22:55;;;;;;;0.30;0.30;;;;;;;12.68;69.50;102779.84;5095511;28;20031;-78
2024/02/19 09:25:23;;;;;;;0.10;0.10;;;;;;;12.76;69.66;102783.41;5094944;28;20051;-77
2024/02/19 09:27:50;;;;;;;0.10;0.10;;;;;;;12.79;69.15;102779.88;5095391;28;20024;-80
2024/02/19 09:30:16;;;;;;;0.57;0.57;;;;;;;12.86;69.15;102783.41;5096206;28;20043;-80
2024/02/19 09:32:42;;;;;;;0.10;0.10;;;;;;;12.87;68.77;102770.13;5097637;28;20106;-79
2024/02/19 09:35:09;;;;;;;1.38;1.23;;;;;;;12.92;69.50;102768.38;5097587;28;20495;-80
2024/02/19 09:37:35;;;;;;;0.20;0.20;;;;;;;12.91;68.81;102766.59;5100113;28;20058;-80
2024/02/19 09:40:04;;;;;;;0.10;0.10;;;;;;;12.94;69.07;102771.00;5098613;28;20016;-80
2024/02/19 09:42:31;;;;;;;0.10;0.10;;;;;;;12.85;68.83;102771.03;5100045;28;20036;-79
2024/02/19 09:44:58;;;;;;;0.10;0.10;;;;;;;12.93;68.59;102780.78;5098986;28;20028;-80
2024/02/19 09:47:26;;;;;;;0.43;0.43;;;;;;;12.76;68.84;102771.88;5090232;28;20106;-81
2024/02/19 09:49:53;;;;;;;0.20;0.20;;;;;;;12.87;68.77;102758.59;5094499;28;20483;-79
2024/02/19 09:52:26;;;;;;;0.10;0.10;;;;;;;12.80;68.82;102768.34;5089028;28;20028;-79
2024/02/19 09:54:52;;;;;;;;;;;;;;;12.99;68.21;102752.41;5089517;28;20036;-81
2024/02/19 09:57:19;;;;;;;0.10;0.10;;;;;;;12.86;68.70;102763.03;5101345;28;19916;-79
2024/02/19 09:59:47;;;;;;;0.10;0.10;;;;;;;12.97;69.01;102762.16;5105153;28;20024;-81
2024/02/19 10:02:18;;;;;;;0.10;0.10;;;;;;;12.99;68.73;102763.06;5099865;28;20169;-84
2024/02/19 10:04:46;;;;;;;0.30;0.30;;;;;;;13.10;68.49;102755.94;5092664;28;20016;-79
2024/02/19 10:07:17;;;;;;;0.10;0.10;;;;;;;13.14;68.08;102747.06;5090833;28;20495;-79
2024/02/19 10:09:44;;;;;;;0.10;0.10;;;;;;;13.25;68.06;102745.28;5085891;28;20574;-78
2024/02/19 10:12:10;;;;;;;0.10;0.10;;;;;;;13.32;68.06;102740.88;5084619;28;20034;-78
2024/02/19 10:14:36;;;;;;;0.15;0.15;;;;;;;13.45;68.29;102736.44;5091744;28;20024;-78
2024/02/19 10:17:05;;;;;;;0.10;0.10;;;;;;;13.43;67.52;102744.44;5079288;28;20039;-77
2024/02/19 10:19:31;;;;;;;0.22;0.22;;;;;;;13.50;67.80;102733.78;5091089;28;20020;-78
2024/02/19 10:21:58;;;;;;;0.20;0.20;;;;;;;13.55;67.21;102727.53;5092849;28;20040;-78
2024/02/19 10:24:26;;;;;;;0.10;0.10;;;;;;;13.62;66.98;102727.50;5084707;28;20063;-77
2024/02/19 10:26:52;;;;;;;0.10;0.10;;;;;;;13.68;66.57;102719.50;5086726;28;20046;-77
2024/02/19 10:29:18;;;;;;;0.10;0.10;;;;;;;13.82;67.06;102720.38;5087322;28;20503;-78
2024/02/19 10:31:44;;;;;;;0.10;0.10;;;;;;;13.89;66.79;102727.44;5087022;28;20086;-77
2024/02/19 10:34:14;;;;;;;1.55;0.63;;;;;;;13.95;66.45;102725.66;5091980;28;20025;-78
2024/02/19 10:36:40;;;;;;;0.10;0.10;;;;;;;13.97;66.00;102726.50;5085074;28;20080;-77
2024/02/19 10:39:08;;;;;;;0.10;0.10;;;;;;;14.00;65.81;102715.84;5082757;28;20028;-77
2024/02/19 10:41:36;;;;;;;0.10;0.10;;;;;;;14.07;65.27;102721.13;5079821;28;20039;-77
2024/02/19 10:44:03;;;;;;;0.10;0.10;;;;;;;14.22;65.28;102724.63;5090052;28;20114;-77
2024/02/19 10:46:31;;;;;;;0.10;0.10;;;;;;;14.14;64.86;102726.44;5090862;28;20032;-77
2024/02/19 10:48:58;;;;;;;1.25;0.73;;;;;;;14.09;64.49;102721.13;5085378;28;20047;-77
2024/02/19 10:51:24;;;;;;;0.75;0.75;;;;;;;14.23;64.03;102716.63;5086039;28;20024;-77
2024/02/19 10:54:00;;;;;;;0.10;0.10;;;;;;;14.39;64.68;102712.09;5080884;28;20055;-77
2024/02/19 10:56:35;;;;;;;0.20;0.20;;;;;;;14.45;64.71;102721.81;5087768;28;20449;-77
2024/02/19 10:59:02;;;;;;;0.10;0.10;;;;;;;14.36;64.53;102709.44;5091352;28;20012;-77
2024/02/19 11:01:46;;;;;;;0.10;0.10;;;;;;;14.34;63.81;102702.34;5090004;28;20165;-77
2024/02/19 11:09:12;;;;;;;0.10;0.10;;;;;;;13.91;64.13;102706.13;5039400;28;20045;-84
2024/02/19 11:14:23;;;;;;;0.63;0.63;;;;;;;13.75;64.60;102707.94;5088964;27;20431;-78
2024/02/19 11:16:51;;;;;;;0.50;0.50;;;;;;;13.83;64.71;102695.50;5100623;28;20040;-78
2024/02/19 11:19:18;;;;;;;0.10;0.10;;;;;;;13.77;65.03;102698.19;5088651;28;20035;-78
2024/02/19 11:21:45;;;;;;;0.70;0.35;;;;;;;13.78;65.17;102707.06;5094162;28;20040;-78
2024/02/19 11:24:12;;;;;;;0.20;0.20;;;;;;;13.73;65.24;102705.28;5094590;28;20025;-78
2024/02/19 11:26:40;;;;;;;0.30;0.30;;;;;;;13.69;65.77;102702.63;5097513;28;20028;-78
2024/02/19 11:29:15;;;;;;;0.10;0.10;;;;;;;13.65;65.67;102698.22;5092231;28;20028;-78